Time;durP1;ratioP1;P1;durP2;ratioP2;P2;SDS_P1;SDS_P2;PMS_P1;PMS_P2;Temp;Humidity;BMP_temperature;BMP_pressure;BME280_temperature;BME280_humidity;BME280_pressure;Samples;Min_cycle;Max_cycle;Signal;HPM_P1;HPM_P2
2022/11/05 00:10:39;;;;;;;15.32;8.02;;;;;;;10.31;85.00;94236.94;5099817;27;20208;-78
2022/11/05 00:18:36;;;;;;;13.07;6.65;;;;;;;10.15;86.20;94222.44;5091155;28;20779;-77
2022/11/05 00:21:03;;;;;;;18.58;8.10;;;;;;;10.20;86.15;94235.78;5091655;28;20230;-78
2022/11/05 00:26:15;;;;;;;30.45;7.53;;;;;;;10.24;86.00;94228.59;5090861;28;20244;-78
2022/11/05 00:28:43;;;;;;;13.90;8.15;;;;;;;10.37;85.61;94232.91;5119122;27;20621;-78
2022/11/05 00:31:12;;;;;;;20.60;8.43;;;;;;;10.32;85.66;94225.00;5102750;28;20234;-79
2022/11/05 00:33:40;;;;;;;18.50;7.90;;;;;;;10.36;85.67;94217.78;5111260;28;20259;-77
2022/11/05 00:36:09;;;;;;;16.05;7.07;;;;;;;10.32;86.19;94214.16;5111872;28;20262;-77
2022/11/05 00:38:36;;;;;;;15.25;6.95;;;;;;;10.26;86.11;94215.50;5112156;28;20206;-77
2022/11/05 00:41:03;;;;;;;15.63;7.50;;;;;;;10.26;86.48;94229.81;5111330;28;20692;-77
2022/11/05 00:46:15;;;;;;;12.70;6.95;;;;;;;10.23;86.42;94227.00;5100561;27;20205;-77
2022/11/05 00:51:26;;;;;;;11.98;7.22;;;;;;;10.25;86.42;94214.69;5109263;28;20213;-78
2022/11/05 00:53:53;;;;;;;16.73;8.48;;;;;;;10.29;86.18;94201.28;5111046;27;20622;-77
2022/11/05 00:56:19;;;;;;;13.77;7.22;;;;;;;10.23;86.60;94194.53;5111461;28;20208;-76
2022/11/05 00:58:48;;;;;;;17.15;9.13;;;;;;;10.25;86.52;94198.47;5110608;28;20201;-77
2022/11/05 01:01:14;;;;;;;17.17;8.20;;;;;;;10.14;86.95;94196.50;5110925;28;20324;-76
2022/11/05 01:03:41;;;;;;;15.65;8.55;;;;;;;10.14;87.24;94202.69;5111105;28;20259;-76
2022/11/05 01:06:11;;;;;;;16.58;7.32;;;;;;;10.15;87.32;94203.47;5111294;28;20205;-76
2022/11/05 01:08:39;;;;;;;20.58;7.40;;;;;;;10.11;87.23;94191.78;5110703;28;20732;-78
2022/11/05 01:11:10;;;;;;;17.48;7.72;;;;;;;10.19;86.99;94193.63;5110249;28;20611;-79
2022/11/05 01:13:38;;;;;;;13.05;7.45;;;;;;;10.10;87.38;94174.75;5123921;27;20232;-78
2022/11/05 01:16:08;;;;;;;13.95;7.93;;;;;;;10.29;86.78;94182.34;5090876;28;20214;-78
2022/11/05 01:18:37;;;;;;;15.40;6.97;;;;;;;10.30;86.90;94189.34;5105611;28;20198;-78
2022/11/05 01:21:10;;;;;;;14.88;8.00;;;;;;;10.17;87.28;94201.25;5110312;28;20731;-76
2022/11/05 01:23:37;;;;;;;17.45;7.15;;;;;;;10.26;86.92;94189.22;5094071;27;20198;-77
2022/11/05 01:26:04;;;;;;;11.40;7.05;;;;;;;10.21;87.18;94186.75;5090078;28;20218;-77
2022/11/05 01:28:30;;;;;;;18.17;8.82;;;;;;;10.11;87.51;94180.94;5090191;28;20203;-77
2022/11/05 01:30:57;;;;;;;14.68;8.07;;;;;;;10.02;87.62;94166.69;5089096;28;20700;-78
2022/11/05 01:33:26;;;;;;;13.18;7.03;;;;;;;10.22;87.35;94168.59;5088929;28;20256;-77
2022/11/05 01:35:52;;;;;;;15.25;8.15;;;;;;;10.18;87.37;94165.75;5090493;28;20271;-77
2022/11/05 01:38:19;;;;;;;20.15;9.10;;;;;;;10.19;87.09;94158.44;5090559;28;20301;-77
2022/11/05 01:40:46;;;;;;;15.00;9.10;;;;;;;10.20;86.99;94141.84;5089508;28;20209;-77
2022/11/05 01:43:16;;;;;;;14.43;7.47;;;;;;;10.22;86.98;94155.84;5088829;28;20229;-77
2022/11/05 01:45:45;;;;;;;12.65;6.85;;;;;;;10.17;87.25;94147.09;5100781;28;20204;-78
2022/11/05 01:48:16;;;;;;;15.88;7.68;;;;;;;9.96;87.38;94147.19;5110342;28;20250;-77
2022/11/05 01:50:51;;;;;;;15.52;7.40;;;;;;;9.85;88.07;94163.03;5109886;28;20705;-78
2022/11/05 01:53:25;;;;;;;22.42;9.20;;;;;;;9.79;88.31;94152.78;5109246;28;20212;-78
2022/11/05 01:55:57;;;;;;;14.57;6.97;;;;;;;9.61;89.23;94144.03;5109468;28;20200;-77
2022/11/05 01:58:28;;;;;;;15.43;8.00;;;;;;;9.66;89.16;94143.84;5108734;28;20359;-77
2022/11/05 02:00:56;;;;;;;11.63;7.40;;;;;;;9.68;89.13;94147.00;5112864;27;20201;-78
2022/11/05 02:03:24;;;;;;;20.35;9.15;;;;;;;9.58;90.85;94120.38;5110042;27;20238;-79
2022/11/05 02:05:54;;;;;;;14.63;7.85;;;;;;;9.51;90.43;94114.72;5106309;28;20205;-78
2022/11/05 02:08:35;;;;;;;17.30;8.05;;;;;;;9.45;90.07;94132.25;5109295;28;20209;-76
2022/11/05 02:11:03;;;;;;;17.52;8.40;;;;;;;9.47;90.35;94140.84;5108700;28;20197;-76
2022/11/05 02:13:29;;;;;;;15.93;7.90;;;;;;;9.42;90.27;94138.34;5122364;27;20512;-78
2022/11/05 02:16:07;;;;;;;12.43;7.43;;;;;;;9.41;90.42;94136.78;5090909;27;20206;-78
2022/11/05 02:18:50;;;;;;;19.25;7.40;;;;;;;9.51;90.12;94147.97;5088871;28;20635;-76
2022/11/05 02:21:41;;;;;;;11.98;7.38;;;;;;;9.36;90.30;94143.16;5088582;28;20239;-77
2022/11/05 02:24:25;;;;;;;15.65;8.13;;;;;;;9.34;91.04;94131.88;5095408;28;20198;-76
2022/11/05 02:27:04;;;;;;;14.60;6.57;;;;;;;9.38;90.97;94143.63;5109458;28;20282;-76
2022/11/05 02:30:02;;;;;;;11.57;6.80;;;;;;;9.36;91.54;94142.38;5108940;28;20207;-76
2022/11/05 02:33:02;;;;;;;13.88;6.97;;;;;;;9.33;91.30;94137.63;5109129;28;20521;-77
2022/11/05 02:35:45;;;;;;;14.90;7.55;;;;;;;9.31;91.50;94131.75;5087199;28;20234;-77
2022/11/05 02:38:21;;;;;;;19.75;8.35;;;;;;;9.43;91.36;94134.53;5112070;28;20198;-77
2022/11/05 02:40:57;;;;;;;16.60;7.78;;;;;;;9.41;91.11;94136.78;5108697;27;20198;-77
2022/11/05 02:43:31;;;;;;;23.48;8.57;;;;;;;9.29;91.50;94134.81;5088453;28;20687;-76
2022/11/05 02:46:03;;;;;;;19.02;8.13;;;;;;;9.31;91.37;94129.84;5101769;28;20186;-77
2022/11/05 02:48:40;;;;;;;14.52;7.68;;;;;;;9.35;91.35;94138.88;5096621;28;20189;-77
2022/11/05 02:51:16;;;;;;;17.83;7.93;;;;;;;9.40;90.90;94140.59;5111523;28;20428;-77
2022/11/05 02:53:49;;;;;;;16.42;7.15;;;;;;;9.34;90.93;94136.50;5109093;27;20275;-77
2022/11/05 02:56:21;;;;;;;13.55;6.75;;;;;;;9.38;91.23;94150.94;5093321;28;20197;-77
2022/11/05 02:58:48;;;;;;;13.43;7.43;;;;;;;9.34;90.92;94152.72;5108914;28;20201;-77
2022/11/05 03:01:14;;;;;;;12.80;6.93;;;;;;;9.46;90.53;94150.84;5108625;28;20201;-77
2022/11/05 03:03:45;;;;;;;14.70;6.93;;;;;;;9.38;91.51;94145.53;5109337;28;20286;-77
2022/11/05 03:06:30;;;;;;;13.68;8.27;;;;;;;9.31;92.22;94132.53;5119973;27;20661;-77
2022/11/05 03:09:12;;;;;;;20.95;8.05;;;;;;;9.20;92.33;94142.19;5094854;28;20251;-77
2022/11/05 03:11:47;;;;;;;14.00;7.80;;;;;;;9.19;92.95;94146.78;5113509;28;20692;-77
2022/11/05 03:14:23;;;;;;;17.90;7.18;;;;;;;9.11;92.70;94152.28;5112630;27;20208;-77
2022/11/05 03:16:58;;;;;;;16.00;6.85;;;;;;;9.04;92.70;94150.09;5113635;28;20524;-77
2022/11/05 03:19:34;;;;;;;15.10;6.68;;;;;;;9.08;92.91;94142.13;5121327;27;20257;-77
2022/11/05 03:22:05;;;;;;;15.23;7.15;;;;;;;9.06;93.15;94137.03;5106652;27;20217;-77
2022/11/05 03:24:34;;;;;;;15.52;7.65;;;;;;;9.14;92.79;94149.72;5113675;27;20198;-77
2022/11/05 03:27:05;;;;;;;13.73;7.10;;;;;;;9.14;93.02;94148.94;5092839;28;20299;-77
2022/11/05 03:29:37;;;;;;;14.93;7.32;;;;;;;9.18;92.91;94150.63;5103646;28;20193;-77
2022/11/05 03:32:06;;;;;;;14.20;8.27;;;;;;;9.22;92.29;94146.16;5112068;28;20237;-77
2022/11/05 03:34:39;;;;;;;14.52;7.47;;;;;;;9.29;91.91;94156.44;5112579;28;20294;-77
2022/11/05 03:37:08;;;;;;;15.85;8.43;;;;;;;9.19;91.68;94151.41;5113032;27;20206;-76
2022/11/05 03:39:39;;;;;;;16.48;6.90;;;;;;;9.30;91.88;94158.00;5112394;28;20641;-76
2022/11/05 03:42:08;;;;;;;18.90;7.82;;;;;;;9.38;91.45;94164.47;5125112;27;20226;-77
2022/11/05 03:44:41;;;;;;;19.23;8.82;;;;;;;9.32;90.61;94171.19;5112021;28;20263;-78
2022/11/05 03:47:13;;;;;;;18.05;8.20;;;;;;;9.39;90.57;94176.84;5121817;27;20189;-77
2022/11/05 03:49:52;;;;;;;16.45;8.15;;;;;;;9.54;89.86;94187.88;5101557;27;20660;-76
2022/11/05 03:52:23;;;;;;;15.73;8.13;;;;;;;9.46;89.84;94185.22;5112539;28;20537;-78
2022/11/05 03:54:50;;;;;;;14.48;6.93;;;;;;;9.37;90.64;94184.50;5112403;28;20652;-77
2022/11/05 03:57:21;;;;;;;14.90;8.00;;;;;;;9.41;90.93;94180.03;5112615;28;20263;-77
2022/11/05 03:59:50;;;;;;;14.18;7.30;;;;;;;9.37;91.22;94190.69;5112282;28;20202;-76
2022/11/05 04:02:19;;;;;;;20.33;8.55;;;;;;;9.45;90.93;94191.75;5111565;28;20233;-77
2022/11/05 04:04:48;;;;;;;13.45;8.00;;;;;;;9.37;91.13;94184.50;5120154;27;20639;-77
2022/11/05 04:15:28;;;;;;;13.65;7.18;;;;;;;9.42;90.63;94181.59;5123267;27;20204;-77
2022/11/05 04:17:57;;;;;;;18.60;8.30;;;;;;;9.41;91.07;94180.03;5090211;28;20679;-78
2022/11/05 04:25:54;;;;;;;13.30;7.15;;;;;;;9.50;91.27;94195.03;5099280;28;20225;-77
2022/11/05 04:30:17;;;;;;;13.63;8.45;;;;;;;9.48;90.91;94186.47;5111347;28;20282;-77
2022/11/05 04:31:06;;;;;;;13.95;6.75;;;;;;;9.66;90.31;94192.53;5110100;28;20260;-77
2022/11/05 04:33:33;;;;;;;15.10;9.75;;;;;;;9.61;90.97;94190.00;5110394;28;20838;-76
2022/11/05 04:36:01;;;;;;;15.80;7.93;;;;;;;9.63;90.52;94187.78;5111579;28;20202;-76
2022/11/05 04:38:28;;;;;;;13.35;8.10;;;;;;;9.52;90.80;94202.81;5111761;28;20209;-76
2022/11/05 04:41:12;;;;;;;16.83;9.30;;;;;;;9.42;91.11;94208.63;5111774;27;20616;-77
2022/11/05 04:43:39;;;;;;;13.23;8.25;;;;;;;9.42;90.58;94222.16;5111520;28;20229;-77
2022/11/05 04:46:06;;;;;;;12.18;6.47;;;;;;;9.32;90.61;94219.81;5110082;28;20217;-76
2022/11/05 04:48:33;;;;;;;13.38;7.07;;;;;;;9.21;91.49;94214.81;5111456;28;20212;-77
2022/11/05 04:51:01;;;;;;;18.15;8.00;;;;;;;9.23;91.33;94212.59;5112972;27;20563;-76
2022/11/05 04:53:28;;;;;;;18.75;7.50;;;;;;;9.32;90.92;94225.22;5115074;27;20210;-77
2022/11/05 04:55:54;;;;;;;15.35;7.63;;;;;;;9.21;91.07;94212.13;5106247;28;20224;-77
2022/11/05 04:58:21;;;;;;;11.10;6.80;;;;;;;9.24;91.22;94208.75;5112013;28;20201;-77
2022/11/05 05:00:49;;;;;;;14.18;6.88;;;;;;;9.29;91.27;94210.50;5123351;27;20205;-78
2022/11/05 05:03:16;;;;;;;15.70;8.73;;;;;;;9.35;90.89;94208.38;5090520;28;20237;-78
2022/11/05 05:05:43;;;;;;;16.95;8.77;;;;;;;9.42;90.61;94197.81;5090227;28;20206;-77
2022/11/05 05:08:11;;;;;;;12.63;7.55;;;;;;;9.57;90.00;94197.19;5091034;28;20202;-77
2022/11/05 05:10:38;;;;;;;14.88;7.70;;;;;;;9.55;90.32;94207.56;5106891;28;20197;-77
2022/11/05 05:13:04;;;;;;;13.02;8.07;;;;;;;9.57;90.46;94213.41;5110962;28;20209;-77
2022/11/05 05:15:31;;;;;;;10.85;6.63;;;;;;;9.70;89.73;94220.50;5110834;28;20828;-77
2022/11/05 05:17:58;;;;;;;12.00;7.03;;;;;;;9.76;89.15;94218.34;5110523;28;20209;-77
2022/11/05 05:23:10;;;;;;;14.75;7.75;;;;;;;9.71;89.02;94230.16;5098046;28;20232;-77
2022/11/05 05:25:40;;;;;;;20.25;8.40;;;;;;;9.78;89.28;94232.34;5090019;28;20653;-78
2022/11/05 05:28:07;;;;;;;22.98;8.68;;;;;;;9.82;89.36;94223.25;5103778;28;20223;-77
2022/11/05 05:30:34;;;;;;;22.13;9.95;;;;;;;9.85;89.50;94243.41;5110687;28;20263;-77
2022/11/05 05:33:02;;;;;;;19.13;9.75;;;;;;;10.04;88.69;94245.63;5110584;28;20688;-78
2022/11/05 05:35:29;;;;;;;20.92;10.30;;;;;;;10.37;88.05;94248.38;5109839;28;20289;-76
2022/11/05 05:37:56;;;;;;;18.42;9.38;;;;;;;10.74;86.84;94251.91;5110739;28;20210;-79
2022/11/05 05:40:23;;;;;;;18.33;8.95;;;;;;;11.15;84.87;94250.91;5110608;28;20684;-80
2022/11/05 05:42:54;;;;;;;14.63;8.18;;;;;;;11.03;83.29;94254.41;5110558;28;20646;-77
2022/11/05 05:45:21;;;;;;;14.82;8.52;;;;;;;11.34;82.19;94256.53;5110538;28;20202;-80
2022/11/05 05:47:48;;;;;;;14.73;7.47;;;;;;;11.69;81.11;94259.50;5110116;28;20201;-76
2022/11/05 05:50:15;;;;;;;16.52;7.20;;;;;;;12.07;79.02;94257.13;5110817;28;20644;-74
2022/11/05 05:52:42;;;;;;;17.05;9.27;;;;;;;12.36;78.50;94260.63;5110363;28;20664;-76
2022/11/05 05:55:11;;;;;;;15.07;8.32;;;;;;;12.69;76.85;94258.41;5110391;28;20262;-78
2022/11/05 05:57:38;;;;;;;16.27;8.23;;;;;;;12.64;76.34;94255.94;5110249;28;20282;-77
2022/11/05 06:00:08;;;;;;;16.13;9.02;;;;;;;12.75;76.63;94262.44;5110210;28;20237;-77
2022/11/05 06:02:34;;;;;;;22.60;10.57;;;;;;;12.84;76.29;94258.78;5110077;28;20234;-78
2022/11/05 06:05:01;;;;;;;25.85;9.48;;;;;;;12.85;76.14;94254.91;5109431;28;20206;-75
2022/11/05 06:07:28;;;;;;;22.80;10.35;;;;;;;12.89;76.15;94251.13;5109571;28;20206;-78
2022/11/05 06:09:55;;;;;;;17.52;7.95;;;;;;;12.84;76.34;94248.69;5109692;28;20206;-78
2022/11/05 06:12:22;;;;;;;17.77;8.38;;;;;;;12.58;77.28;94249.19;5109690;28;20652;-78
2022/11/05 06:14:51;;;;;;;17.88;9.90;;;;;;;12.67;77.60;94249.81;5109432;28;20206;-77
2022/11/05 06:17:21;;;;;;;19.17;9.27;;;;;;;12.93;76.29;94248.50;5123044;27;20209;-79
2022/11/05 06:19:47;;;;;;;20.02;9.25;;;;;;;12.97;76.07;94239.31;5108738;28;20197;-79
2022/11/05 06:22:14;;;;;;;15.52;7.78;;;;;;;12.98;76.36;94242.81;5104843;28;20577;-77
2022/11/05 06:24:41;;;;;;;22.05;11.55;;;;;;;13.05;75.93;94248.41;5100694;28;20583;-79
2022/11/05 06:27:08;;;;;;;25.42;10.07;;;;;;;13.15;75.75;94247.91;5114133;27;20225;-79
2022/11/05 06:29:35;;;;;;;17.60;9.68;;;;;;;13.14;75.42;94240.84;5117903;27;20194;-76
2022/11/05 06:32:02;;;;;;;19.90;9.63;;;;;;;13.10;75.82;94240.78;5109371;28;20229;-78
2022/11/05 06:34:30;;;;;;;25.15;11.93;;;;;;;13.32;75.52;94242.09;5109436;28;20266;-78
2022/11/05 06:36:57;;;;;;;27.35;10.75;;;;;;;13.41;74.81;94248.13;5108808;28;20668;-76
2022/11/05 06:39:24;;;;;;;16.42;8.65;;;;;;;13.19;75.47;94242.53;5108468;28;20201;-76
2022/11/05 06:41:50;;;;;;;17.58;10.13;;;;;;;13.34;75.23;94245.25;5109343;28;20201;-78
2022/11/05 06:44:17;;;;;;;21.98;9.88;;;;;;;13.38;75.47;94246.13;5109232;28;20237;-78
2022/11/05 06:46:44;;;;;;;21.60;10.25;;;;;;;13.79;73.95;94241.97;5109636;28;20210;-78
2022/11/05 06:49:10;;;;;;;16.50;8.52;;;;;;;13.55;73.09;94244.91;5109030;28;20205;-78
2022/11/05 06:51:42;;;;;;;18.67;9.38;;;;;;;13.36;73.81;94236.72;5109172;28;20213;-79
2022/11/05 06:54:08;;;;;;;24.42;8.75;;;;;;;13.53;73.10;94237.09;5109350;28;20209;-78
2022/11/05 06:56:35;;;;;;;20.05;11.75;;;;;;;13.41;72.96;94223.63;5109110;28;20235;-76
2022/11/05 06:59:02;;;;;;;17.88;9.10;;;;;;;13.79;71.77;94233.81;5122828;28;20253;-78
2022/11/05 07:01:29;;;;;;;17.02;7.88;;;;;;;13.71;71.93;94231.25;5117386;28;20559;-79
2022/11/05 07:03:56;;;;;;;14.50;7.35;;;;;;;13.63;72.30;94222.19;5114968;27;21005;-79
2022/11/05 07:06:22;;;;;;;27.70;14.77;;;;;;;13.65;72.31;94219.88;5109679;28;20201;-76
2022/11/05 07:08:51;;;;;;;25.13;12.45;;;;;;;13.64;72.42;94212.09;5109507;28;20217;-80
2022/11/05 07:11:17;;;;;;;16.38;9.13;;;;;;;13.62;72.91;94206.19;5118300;28;20212;-80
2022/11/05 07:13:44;;;;;;;20.05;9.07;;;;;;;13.58;73.07;94205.31;5116661;27;20209;-78
2022/11/05 07:16:11;;;;;;;21.20;8.95;;;;;;;13.61;73.11;94199.19;5121756;27;20201;-82
2022/11/05 07:18:38;;;;;;;17.83;9.52;;;;;;;13.60;73.47;94212.00;5123053;28;20201;-82
2022/11/05 07:21:05;;;;;;;16.10;7.43;;;;;;;13.83;72.70;94207.41;5119174;28;20848;-84
2022/11/05 07:23:32;;;;;;;11.40;5.60;;;;;;;14.16;71.65;94209.63;5113873;27;20232;-82
2022/11/05 07:26:00;;;;;;;18.63;7.35;;;;;;;13.98;71.87;94216.66;5110546;28;20228;-78
2022/11/05 07:28:27;;;;;;;16.42;7.20;;;;;;;14.20;71.21;94210.50;5113055;28;20238;-81
2022/11/05 07:30:54;;;;;;;14.10;7.30;;;;;;;14.30;70.55;94209.13;5109982;27;20288;-83
2022/11/05 07:33:21;;;;;;;13.55;7.32;;;;;;;14.38;70.10;94215.47;5089410;28;20207;-83
2022/11/05 07:35:47;;;;;;;13.60;6.88;;;;;;;14.36;70.09;94212.31;5100165;28;20202;-79
2022/11/05 07:38:15;;;;;;;14.23;7.22;;;;;;;14.74;70.11;94198.66;5107404;28;20483;-79
2022/11/05 07:40:42;;;;;;;13.00;6.50;;;;;;;14.91;68.67;94195.41;5112930;28;20193;-80
2022/11/05 07:43:10;;;;;;;22.48;9.23;;;;;;;15.14;67.59;94183.69;5102235;28;20727;-83
2022/11/05 07:45:37;;;;;;;16.00;7.45;;;;;;;15.27;66.92;94185.03;5111003;28;20214;-77
2022/11/05 07:48:05;;;;;;;14.73;8.48;;;;;;;15.56;66.77;94187.06;5107867;28;20259;-80
2022/11/05 07:50:33;;;;;;;15.77;8.38;;;;;;;16.04;65.46;94181.00;5107455;28;20194;-80
2022/11/05 07:53:01;;;;;;;21.42;12.48;;;;;;;16.42;63.89;94188.03;5111557;28;20270;-78
2022/11/05 07:55:28;;;;;;;20.05;8.73;;;;;;;16.62;62.52;94181.22;5111659;28;20282;-82
2022/11/05 07:57:54;;;;;;;13.63;7.10;;;;;;;16.72;62.12;94177.81;5111960;28;20613;-81
2022/11/05 08:00:25;;;;;;;18.13;7.03;;;;;;;16.52;63.02;94176.44;5111817;28;20204;-80
2022/11/05 08:02:59;;;;;;;17.70;8.40;;;;;;;16.34;63.37;94177.06;5110057;28;20181;-82
2022/11/05 08:05:26;;;;;;;18.25;8.10;;;;;;;16.52;63.06;94176.44;5108839;28;20193;-82
2022/11/05 08:07:54;;;;;;;13.82;7.45;;;;;;;16.70;62.17;94177.41;5113295;27;20194;-81
2022/11/05 08:10:21;;;;;;;20.38;8.23;;;;;;;16.60;62.27;94172.59;5110829;28;20196;-78
2022/11/05 08:12:48;;;;;;;16.63;8.50;;;;;;;16.21;63.49;94164.81;5108545;28;20697;-82
2022/11/05 08:15:15;;;;;;;16.08;7.90;;;;;;;16.30;63.83;94159.81;5111689;27;20190;-82
2022/11/05 08:17:43;;;;;;;21.33;8.23;;;;;;;15.66;64.87;94185.63;5111914;28;20198;-84
2022/11/05 08:20:11;;;;;;;27.10;14.68;;;;;;;15.67;65.07;94186.41;5112183;28;20198;-86
2022/11/05 08:22:41;;;;;;;20.48;9.07;;;;;;;15.54;65.55;94181.13;5114005;27;20194;-84
2022/11/05 08:25:08;;;;;;;20.77;8.57;;;;;;;15.62;65.52;94179.31;5109091;28;20226;-81
2022/11/05 08:27:35;;;;;;;19.30;11.10;;;;;;;15.75;65.05;94182.59;5109571;28;20255;-82
2022/11/05 08:30:02;;;;;;;27.15;15.70;;;;;;;15.76;65.06;94187.69;5112048;27;20190;-80
2022/11/05 08:32:29;;;;;;;25.67;14.63;;;;;;;15.79;65.06;94183.44;5108604;28;20293;-82
2022/11/05 08:34:58;;;;;;;20.25;10.27;;;;;;;15.93;65.18;94178.94;5108002;28;20254;-79
2022/11/05 08:37:25;;;;;;;22.67;9.73;;;;;;;16.32;63.75;94160.22;5095427;28;20194;-86
2022/11/05 08:39:55;;;;;;;23.00;10.75;;;;;;;16.20;63.70;94155.03;5111240;28;20205;-81
2022/11/05 08:42:21;;;;;;;16.10;9.82;;;;;;;16.03;63.89;94166.53;5111145;28;20231;-82
2022/11/05 08:44:48;;;;;;;12.18;5.90;;;;;;;16.27;63.22;94157.81;5111154;28;20237;-78
2022/11/05 08:47:15;;;;;;;27.55;14.20;;;;;;;16.39;63.19;94166.94;5111393;27;20262;-84
2022/11/05 08:49:42;;;;;;;28.80;16.17;;;;;;;16.67;62.36;94168.00;5101237;27;20580;-80
2022/11/05 08:52:10;;;;;;;29.10;14.73;;;;;;;16.88;60.95;94158.41;5109781;27;20202;-81
2022/11/05 08:54:37;;;;;;;24.10;13.85;;;;;;;16.73;61.14;94157.50;5091507;28;20279;-80
2022/11/05 08:57:04;;;;;;;20.85;9.40;;;;;;;16.68;61.14;94155.13;5091197;28;20210;-83
2022/11/05 08:59:30;;;;;;;18.95;9.68;;;;;;;16.66;60.85;94155.53;5114980;27;20214;-79
2022/11/05 09:01:57;;;;;;;22.15;13.30;;;;;;;16.82;60.79;94162.66;5125297;27;20200;-79
2022/11/05 09:04:24;;;;;;;16.17;9.10;;;;;;;17.00;60.42;94158.13;5094465;27;20248;-83
2022/11/05 09:06:51;;;;;;;17.30;8.23;;;;;;;16.74;60.57;94156.34;5108651;28;20721;-78
2022/11/05 09:09:19;;;;;;;13.35;7.03;;;;;;;16.80;60.01;94160.31;5107799;28;20578;-81
2022/11/05 09:11:46;;;;;;;19.73;7.50;;;;;;;16.85;59.46;94142.75;5109552;27;20240;-83
2022/11/05 09:14:12;;;;;;;14.18;7.50;;;;;;;16.78;59.46;94146.25;5108169;28;20250;-80
2022/11/05 09:16:39;;;;;;;20.08;11.35;;;;;;;17.25;58.97;94152.81;5107215;27;20667;-81
2022/11/05 09:19:06;;;;;;;18.02;10.32;;;;;;;17.62;57.11;94149.94;5109654;28;20251;-80
2022/11/05 09:21:33;;;;;;;22.20;11.70;;;;;;;17.57;57.13;94147.53;5109886;28;20205;-81
2022/11/05 09:24:00;;;;;;;19.95;11.55;;;;;;;17.65;56.79;94149.16;5108171;28;20217;-80
2022/11/05 09:26:28;;;;;;;18.67;11.20;;;;;;;17.62;56.22;94153.44;5109862;28;20258;-81
2022/11/05 09:28:55;;;;;;;22.00;11.35;;;;;;;17.96;56.05;94150.47;5109889;27;20239;-81
2022/11/05 09:31:22;;;;;;;17.65;9.88;;;;;;;18.09;54.69;94140.72;5109446;28;20221;-80
2022/11/05 09:33:49;;;;;;;19.65;10.65;;;;;;;18.25;54.03;94134.91;5108312;28;20190;-77
2022/11/05 09:36:15;;;;;;;18.40;10.00;;;;;;;18.54;53.06;94127.53;5108858;28;20190;-79
2022/11/05 09:38:42;;;;;;;20.05;10.70;;;;;;;18.22;53.98;94128.25;5109343;28;20197;-81
2022/11/05 09:41:15;;;;;;;21.50;11.60;;;;;;;18.33;54.13;94131.78;5109837;28;20376;-78
2022/11/05 09:43:48;;;;;;;19.20;10.77;;;;;;;18.71;53.26;94133.06;5106700;28;20206;-82
2022/11/05 09:46:20;;;;;;;17.20;10.32;;;;;;;18.66;53.63;94138.16;5107536;28;20190;-79
2022/11/05 09:48:49;;;;;;;23.20;11.70;;;;;;;18.91;52.54;94129.91;5106823;28;20190;-78
2022/11/05 09:51:16;;;;;;;20.98;11.57;;;;;;;19.41;51.67;94119.66;5117781;27;20201;-80
2022/11/05 09:53:45;;;;;;;17.15;9.55;;;;;;;19.38;50.75;94120.47;5119240;27;20223;-81
2022/11/05 09:56:22;;;;;;;17.73;10.40;;;;;;;19.68;49.83;94123.53;5123145;27;20220;-81
2022/11/05 09:58:54;;;;;;;16.23;9.73;;;;;;;19.54;49.66;94123.59;5107341;28;20416;-81
2022/11/05 10:01:24;;;;;;;14.93;8.70;;;;;;;19.42;49.96;94126.72;5109523;28;20200;-78
2022/11/05 10:03:55;;;;;;;22.42;10.18;;;;;;;19.59;49.77;94125.91;5110454;28;20217;-84
2022/11/05 10:06:25;;;;;;;16.05;9.65;;;;;;;19.46;50.34;94130.25;5105368;27;20201;-80
2022/11/05 10:09:11;;;;;;;16.92;9.73;;;;;;;19.21;50.17;94121.25;5102183;27;20256;-79
2022/11/05 10:11:42;;;;;;;16.45;9.77;;;;;;;19.43;49.75;94118.06;5109947;28;20201;-82
2022/11/05 10:14:17;;;;;;;18.02;9.57;;;;;;;19.08;51.24;94118.16;5113708;28;20228;-79
2022/11/05 10:16:52;;;;;;;19.88;9.43;;;;;;;18.42;51.51;94104.78;5104240;27;20274;-79
2022/11/05 10:19:23;;;;;;;21.25;9.95;;;;;;;18.43;51.52;94106.34;5090948;28;20238;-81
2022/11/05 10:21:51;;;;;;;16.25;8.80;;;;;;;18.91;51.07;94119.72;5102621;28;20280;-76
2022/11/05 10:24:19;;;;;;;18.38;9.02;;;;;;;18.99;49.98;94110.31;5088587;28;20241;-79
2022/11/05 10:26:49;;;;;;;16.65;9.13;;;;;;;19.30;49.13;94113.41;5117781;27;20270;-79
2022/11/05 10:29:26;;;;;;;14.38;8.75;;;;;;;19.57;48.65;94109.03;5118913;27;20723;-81
2022/11/05 10:31:55;;;;;;;20.77;9.98;;;;;;;19.78;48.87;94106.22;5097258;27;20276;-83
2022/11/05 10:34:23;;;;;;;15.10;8.82;;;;;;;19.79;48.14;94107.81;5100005;28;20235;-84
2022/11/05 10:36:53;;;;;;;17.52;9.80;;;;;;;19.68;48.83;94106.28;5109804;28;20206;-82
2022/11/05 10:39:22;;;;;;;16.85;9.65;;;;;;;19.53;49.36;94100.03;5100118;28;20297;-84
2022/11/05 10:42:12;;;;;;;21.20;10.25;;;;;;;19.44;49.22;94107.88;5089640;28;20220;-81
2022/11/05 10:44:47;;;;;;;16.52;9.70;;;;;;;19.42;49.59;94107.47;5088168;28;20237;-79
2022/11/05 10:47:39;;;;;;;17.45;9.38;;;;;;;19.63;48.80;94098.44;5097944;28;20616;-81
2022/11/05 10:50:11;;;;;;;18.73;10.02;;;;;;;19.97;48.09;94095.94;5096551;28;20296;-84
2022/11/05 10:52:42;;;;;;;13.90;9.85;;;;;;;19.71;48.28;94102.72;5122353;28;20640;-83
2022/11/05 10:55:17;;;;;;;16.85;10.07;;;;;;;19.53;48.87;94091.81;5097551;28;20347;-82
2022/11/05 10:57:43;;;;;;;16.48;9.48;;;;;;;19.61;48.64;94095.31;5119398;28;20197;-81
2022/11/05 11:00:24;;;;;;;20.95;10.27;;;;;;;19.58;48.17;94079.59;5089206;28;20218;-83
2022/11/05 11:02:54;;;;;;;18.25;9.45;;;;;;;20.01;47.37;94080.19;5089159;28;20209;-81
2022/11/05 11:05:24;;;;;;;18.52;9.55;;;;;;;20.25;46.61;94084.78;5089249;28;20229;-78
2022/11/05 11:08:01;;;;;;;16.83;9.23;;;;;;;20.02;47.15;94081.78;5109165;28;20205;-77
2022/11/05 11:10:30;;;;;;;16.50;9.88;;;;;;;19.54;48.04;94085.13;5109229;28;20201;-80
2022/11/05 11:12:58;;;;;;;17.60;9.50;;;;;;;19.64;48.00;94084.31;5109283;28;20205;-77
2022/11/05 11:15:31;;;;;;;17.10;9.98;;;;;;;19.91;46.94;94081.81;5110920;28;20247;-77
2022/11/05 11:17:58;;;;;;;14.05;8.98;;;;;;;19.38;47.56;94093.00;5119469;27;20190;-77
2022/11/05 11:20:28;;;;;;;17.50;9.23;;;;;;;19.76;48.25;94086.59;5108981;28;20206;-78
2022/11/05 11:23:11;;;;;;;14.18;9.20;;;;;;;20.11;46.43;94071.09;5108961;28;20198;-77
2022/11/05 11:25:47;;;;;;;13.35;8.63;;;;;;;20.17;46.53;94066.75;5108757;28;20780;-79
2022/11/05 11:28:22;;;;;;;18.05;8.82;;;;;;;20.50;45.68;94068.16;5112716;28;20635;-77
2022/11/05 11:31:01;;;;;;;16.73;9.48;;;;;;;20.79;44.99;94065.94;5112981;28;20317;-75
2022/11/05 11:33:29;;;;;;;15.77;9.13;;;;;;;20.27;45.80;94071.41;5113286;28;20258;-75
2022/11/05 11:35:56;;;;;;;18.08;8.85;;;;;;;20.22;46.12;94080.09;5124188;27;20204;-76
2022/11/05 11:38:25;;;;;;;17.10;9.60;;;;;;;20.25;46.31;94068.25;5110282;27;20211;-79
2022/11/05 11:41:00;;;;;;;26.65;10.25;;;;;;;20.10;46.38;94067.56;5124527;27;20233;-76
2022/11/05 11:43:29;;;;;;;21.40;11.00;;;;;;;20.21;46.00;94062.81;5119737;27;20200;-75
2022/11/05 11:45:58;;;;;;;19.27;9.43;;;;;;;20.29;46.04;94073.75;5120703;27;20237;-80
2022/11/05 11:48:28;;;;;;;14.13;8.40;;;;;;;20.23;45.63;94071.41;5118916;27;20754;-78
2022/11/05 11:50:56;;;;;;;17.77;9.02;;;;;;;20.35;45.64;94072.94;5121011;27;20193;-77
2022/11/05 11:53:29;;;;;;;14.02;8.70;;;;;;;20.02;45.68;94065.28;5113062;27;20251;-78
2022/11/05 11:56:14;;;;;;;16.52;10.30;;;;;;;19.65;46.79;94069.38;5114804;27;20286;-75
2022/11/05 11:58:45;;;;;;;14.75;9.00;;;;;;;19.27;47.44;94065.53;5133712;27;20281;-78
2022/11/05 12:01:46;;;;;;;17.30;8.73;;;;;;;19.14;47.73;94065.16;5120010;27;20208;-81
2022/11/05 12:04:28;;;;;;;15.48;8.85;;;;;;;19.44;47.24;94070.19;5119444;27;20246;-78
2022/11/05 12:07:11;;;;;;;14.35;8.98;;;;;;;19.30;47.60;94063.97;5120934;27;20276;-78
2022/11/05 12:09:56;;;;;;;22.40;9.50;;;;;;;19.10;47.66;94050.69;5107026;27;20196;-79
2022/11/05 12:12:28;;;;;;;15.48;8.43;;;;;;;19.45;47.35;94060.78;5119344;27;20193;-78
2022/11/05 12:14:59;;;;;;;15.38;9.10;;;;;;;19.58;47.20;94055.66;5121692;27;20190;-78
2022/11/05 12:17:39;;;;;;;19.83;9.02;;;;;;;19.70;46.87;94049.72;5125669;27;21032;-80
2022/11/05 12:20:25;;;;;;;14.40;8.38;;;;;;;19.57;48.12;94065.06;5125451;27;20203;-80